createdAt,value
2024-03-07T00:00:01.002Z,0
2024-03-07T00:01:01.258Z,0
2024-03-07T00:03:01.276Z,0
2024-03-07T00:04:01.029Z,0
2024-03-07T00:05:01.081Z,0
2024-03-07T00:06:01.467Z,0
2024-03-07T00:07:01.012Z,0
2024-03-07T00:08:01.218Z,0
2024-03-07T00:09:01.250Z,0
2024-03-07T00:11:01.266Z,0
2024-03-07T00:12:01.552Z,0
2024-03-07T00:13:00.959Z,0
2024-03-07T00:14:01.043Z,0
2024-03-07T00:15:01.099Z,0
2024-03-07T00:16:01.048Z,0
2024-03-07T00:18:01.651Z,0
2024-03-07T00:19:01.014Z,0
2024-03-07T00:20:01.063Z,0
2024-03-07T00:21:01.388Z,0
2024-03-07T00:22:01.119Z,0
2024-03-07T00:23:01.038Z,0
2024-03-07T00:24:00.968Z,0
2024-03-07T00:25:01.031Z,0
2024-03-07T00:26:00.973Z,0
2024-03-07T00:27:01.051Z,0
2024-03-07T00:28:00.967Z,0
2024-03-07T00:29:01.130Z,0
2024-03-07T00:30:01.659Z,0
2024-03-07T00:32:01.036Z,0
2024-03-07T00:33:01.566Z,0
2024-03-07T00:34:26.944Z,0
2024-03-07T00:36:01.382Z,0
2024-03-07T00:38:01.023Z,0
2024-03-07T00:39:00.978Z,0
2024-03-07T00:40:01.124Z,0
2024-03-07T00:41:00.964Z,0
2024-03-07T00:42:01.046Z,0
2024-03-07T00:43:00.968Z,0
2024-03-07T00:44:01.003Z,0
2024-03-07T00:45:01.001Z,0
2024-03-07T00:47:01.037Z,0
2024-03-07T00:48:01.547Z,0
2024-03-07T00:49:01.003Z,0
2024-03-07T00:50:01.008Z,0
2024-03-07T00:51:01.008Z,0
2024-03-07T00:52:01.034Z,0
2024-03-07T00:53:01.030Z,0
2024-03-07T00:54:01.036Z,0
2024-03-07T00:55:01.127Z,0
2024-03-07T00:56:01.017Z,0
2024-03-07T00:57:01.188Z,0
2024-03-07T00:59:01.036Z,0
2024-03-07T01:00:01.596Z,0
2024-03-07T01:02:01.037Z,0
2024-03-07T01:03:01.751Z,0
2024-03-07T01:05:01.069Z,0
2024-03-07T01:06:01.396Z,0
2024-03-07T01:07:00.998Z,0
2024-03-07T01:08:01.002Z,0
2024-03-07T01:09:01.064Z,0
2024-03-07T01:10:01.009Z,0
2024-03-07T01:11:01.214Z,0
2024-03-07T01:12:01.990Z,0
2024-03-07T01:13:00.952Z,0
2024-03-07T01:14:01.111Z,0
2024-03-07T01:15:01.300Z,0
2024-03-07T01:16:01.104Z,0
2024-03-07T01:17:01.061Z,0
2024-03-07T01:18:01.950Z,0
2024-03-07T01:19:01.031Z,0
2024-03-07T01:20:01.072Z,0
2024-03-07T01:21:01.005Z,0
2024-03-07T01:22:01.041Z,0
2024-03-07T01:23:01.035Z,0
2024-03-07T01:24:01.307Z,0
2024-03-07T01:25:01.120Z,0
2024-03-07T01:26:01.087Z,0
2024-03-07T01:27:01.746Z,0
2024-03-07T01:28:00.991Z,0
2024-03-07T01:29:01.038Z,0
2024-03-07T01:30:01.359Z,0
2024-03-07T01:32:01.054Z,0
2024-03-07T01:33:01.870Z,0
2024-03-07T01:35:01.165Z,0
2024-03-07T01:36:01.196Z,0
2024-03-07T01:37:00.987Z,0
2024-03-07T01:38:01.075Z,0
2024-03-07T01:39:01.266Z,0
2024-03-07T01:40:01.116Z,0
2024-03-07T01:41:01.022Z,0
2024-03-07T01:42:01.379Z,0
2024-03-07T01:43:00.986Z,0
2024-03-07T01:44:01.089Z,0
2024-03-07T01:45:01.386Z,0
2024-03-07T01:46:01.013Z,0
2024-03-07T01:47:01.008Z,0
2024-03-07T01:48:02.103Z,0
2024-03-07T01:50:01.046Z,0
2024-03-07T01:51:01.393Z,0
2024-03-07T01:52:00.934Z,0
2024-03-07T01:53:01.011Z,0
2024-03-07T01:54:01.422Z,0
2024-03-07T01:56:01.105Z,0
2024-03-07T01:57:01.304Z,0
2024-03-07T01:58:00.970Z,0
2024-03-07T01:59:01.062Z,0
2024-03-07T02:00:01.042Z,0
2024-03-07T02:01:02.168Z,0
2024-03-07T02:03:01.490Z,0
2024-03-07T02:05:01.074Z,0
2024-03-07T02:06:01.366Z,0
2024-03-07T02:07:00.965Z,0
2024-03-07T02:08:01.143Z,0
2024-03-07T02:09:01.178Z,0
2024-03-07T02:10:01.051Z,0
2024-03-07T02:11:01.261Z,0
2024-03-07T02:12:01.243Z,0
2024-03-07T02:13:00.964Z,0
2024-03-07T02:14:01.037Z,0
2024-03-07T02:15:01.864Z,0
2024-03-07T02:16:01.084Z,0
2024-03-07T02:17:01.130Z,0
2024-03-07T02:18:01.441Z,0
2024-03-07T02:20:01.051Z,0
2024-03-07T02:21:01.322Z,0
2024-03-07T02:22:01.053Z,0
2024-03-07T02:23:01.013Z,0
2024-03-07T02:24:01.049Z,0
2024-03-07T02:25:01.023Z,0
2024-03-07T02:26:01.089Z,0
2024-03-07T02:27:01.452Z,0
2024-03-07T02:28:01.257Z,0
2024-03-07T02:29:01.125Z,0
2024-03-07T02:30:01.140Z,0
2024-03-07T02:31:01.005Z,0
2024-03-07T02:32:01.082Z,0
2024-03-07T02:33:01.705Z,0
2024-03-07T02:35:01.134Z,0
2024-03-07T02:36:01.722Z,0
2024-03-07T02:38:01.043Z,0
2024-03-07T02:39:01.753Z,0
2024-03-07T02:41:01.019Z,0
2024-03-07T02:42:01.369Z,0
2024-03-07T02:43:01.128Z,0
2024-03-07T02:44:01.049Z,0
2024-03-07T02:45:01.068Z,0
2024-03-07T02:46:01.017Z,0
2024-03-07T02:47:01.056Z,0
2024-03-07T02:48:02.017Z,0
2024-03-07T02:50:01.126Z,0
2024-03-07T02:51:01.386Z,0
2024-03-07T02:52:01.063Z,0
2024-03-07T02:53:01.062Z,0
2024-03-07T02:54:01.341Z,0
2024-03-07T02:55:00.974Z,0
2024-03-07T02:56:00.999Z,0
2024-03-07T02:57:01.241Z,0
2024-03-07T02:58:01.025Z,0
2024-03-07T02:59:05.909Z,0
2024-03-07T03:01:01.069Z,0
2024-03-07T03:02:01.120Z,0
2024-03-07T03:03:01.227Z,0
2024-03-07T03:04:01.080Z,0
2024-03-07T03:05:01.228Z,0
2024-03-07T03:06:01.137Z,0
2024-03-07T03:08:01.110Z,0
2024-03-07T03:09:01.049Z,0
2024-03-07T03:11:01.253Z,0
2024-03-07T03:12:01.506Z,0
2024-03-07T03:13:02.303Z,0
2024-03-07T03:15:01.254Z,0
2024-03-07T03:16:00.967Z,0
2024-03-07T03:17:01.165Z,0
2024-03-07T03:18:03.715Z,0
2024-03-07T03:19:00.954Z,0
2024-03-07T03:20:01.020Z,0
2024-03-07T03:21:01.204Z,0
2024-03-07T03:22:01.010Z,0
2024-03-07T03:23:22.557Z,0
2024-03-07T03:25:01.027Z,0
2024-03-07T03:26:01.139Z,0
2024-03-07T03:27:01.523Z,0
2024-03-07T03:28:01.001Z,0
2024-03-07T03:29:01.022Z,0
2024-03-07T03:30:01.289Z,0
2024-03-07T03:32:01.070Z,0
2024-03-07T03:33:01.455Z,0
2024-03-07T03:34:00.975Z,0
2024-03-07T03:35:01.008Z,0
2024-03-07T03:36:01.485Z,0
2024-03-07T03:37:00.997Z,0
2024-03-07T03:38:01.116Z,0
2024-03-07T03:39:01.351Z,0
2024-03-07T03:40:00.982Z,0
2024-03-07T03:41:00.992Z,0
2024-03-07T03:42:01.264Z,0
2024-03-07T03:43:01.041Z,0
2024-03-07T03:44:01.009Z,0
2024-03-07T03:45:01.042Z,0
2024-03-07T03:46:01.052Z,0
2024-03-07T03:47:00.993Z,0
2024-03-07T03:48:02.159Z,0
2024-03-07T03:50:01.509Z,0
2024-03-07T03:52:01.025Z,0
2024-03-07T03:53:01.023Z,0
2024-03-07T03:54:01.280Z,0
2024-03-07T03:55:01.073Z,0
2024-03-07T03:56:01.136Z,0
2024-03-07T03:57:01.268Z,0
2024-03-07T03:59:01.034Z,0
2024-03-07T04:00:01.086Z,0
2024-03-07T04:01:00.977Z,0
2024-03-07T04:02:01.051Z,0
2024-03-07T04:03:01.274Z,0
2024-03-07T04:04:01.070Z,0
2024-03-07T04:05:01.069Z,0
2024-03-07T04:06:01.415Z,0
2024-03-07T04:08:01.094Z,0
2024-03-07T04:09:01.285Z,0
2024-03-07T04:10:01.031Z,0
2024-03-07T04:11:01.450Z,0
2024-03-07T04:12:02.006Z,0
2024-03-07T04:14:01.045Z,0
2024-03-07T04:15:01.147Z,0
2024-03-07T04:16:01.051Z,0
2024-03-07T04:17:01.095Z,0
2024-03-07T04:18:01.302Z,0
2024-03-07T04:20:01.021Z,0
2024-03-07T04:21:01.909Z,0
2024-03-07T04:23:01.095Z,0
2024-03-07T04:24:01.485Z,0
2024-03-07T04:25:00.953Z,0
2024-03-07T04:26:01.035Z,0
2024-03-07T04:27:01.230Z,0
2024-03-07T04:28:00.945Z,0
2024-03-07T04:29:01.090Z,0
2024-03-07T04:30:01.047Z,0
2024-03-07T04:31:01.012Z,0
2024-03-07T04:32:01.029Z,0
2024-03-07T04:33:01.583Z,0
2024-03-07T04:35:01.047Z,0
2024-03-07T04:36:01.509Z,0
2024-03-07T04:38:00.992Z,0
2024-03-07T04:39:01.384Z,0
2024-03-07T04:41:01.080Z,0
2024-03-07T04:42:01.297Z,0
2024-03-07T04:43:00.987Z,0
2024-03-07T04:44:01.127Z,0
2024-03-07T04:45:01.012Z,0
2024-03-07T04:46:00.993Z,0
2024-03-07T04:47:01.092Z,0
2024-03-07T04:48:01.833Z,0
2024-03-07T04:50:01.162Z,0
2024-03-07T04:51:01.945Z,0
2024-03-07T04:53:01.161Z,0
2024-03-07T04:54:01.142Z,0
2024-03-07T04:55:01.036Z,0
2024-03-07T04:56:01.081Z,0
2024-03-07T04:57:01.414Z,0
2024-03-07T04:58:01.029Z,0
2024-03-07T04:59:01.011Z,0
2024-03-07T05:00:01.275Z,0
2024-03-07T05:01:01.028Z,0
2024-03-07T05:02:01.072Z,0
2024-03-07T05:03:01.299Z,0
2024-03-07T05:04:01.402Z,0
2024-03-07T05:05:01.024Z,0
2024-03-07T05:06:01.541Z,0
2024-03-07T05:07:00.951Z,0
2024-03-07T05:08:01.052Z,0
2024-03-07T05:09:01.341Z,0
2024-03-07T05:10:01.088Z,0
2024-03-07T05:11:01.244Z,0
2024-03-07T05:12:01.198Z,0
2024-03-07T05:13:00.969Z,0
2024-03-07T05:14:01.052Z,0
2024-03-07T05:15:01.771Z,0
2024-03-07T05:16:01.071Z,0
2024-03-07T05:17:01.005Z,0
2024-03-07T05:18:01.570Z,0
2024-03-07T05:20:01.086Z,0
2024-03-07T05:21:01.312Z,0
2024-03-07T05:22:01.016Z,0
2024-03-07T05:23:01.053Z,0
2024-03-07T05:24:01.406Z,0
2024-03-07T05:27:01.381Z,0
2024-03-07T05:29:01.050Z,1
2024-03-07T05:30:01.496Z,1
2024-03-07T05:32:01.055Z,1
2024-03-07T05:33:01.545Z,1
2024-03-07T05:35:01.033Z,2
2024-03-07T05:36:01.356Z,2
2024-03-07T05:37:00.961Z,3
2024-03-07T05:38:01.220Z,3
2024-03-07T05:39:01.182Z,4
2024-03-07T05:40:01.642Z,4
2024-03-07T05:42:01.700Z,5
2024-03-07T05:44:01.090Z,7
2024-03-07T05:45:01.986Z,8
2024-03-07T05:47:01.117Z,10
2024-03-07T05:48:01.251Z,11
2024-03-07T05:49:01.020Z,12
2024-03-07T05:50:01.087Z,14
2024-03-07T05:51:01.597Z,14
2024-03-07T05:52:01.209Z,15
2024-03-07T05:53:00.995Z,16
2024-03-07T05:54:01.043Z,16
2024-03-07T05:55:01.090Z,18
2024-03-07T05:56:01.007Z,19
2024-03-07T05:57:01.419Z,20
2024-03-07T05:58:00.997Z,22
2024-03-07T05:59:01.076Z,24
2024-03-07T06:00:01.383Z,26
2024-03-07T06:01:01.077Z,28
2024-03-07T06:02:01.117Z,31
2024-03-07T06:03:01.508Z,33
2024-03-07T06:05:01.043Z,34
2024-03-07T06:06:01.321Z,34
2024-03-07T06:07:01.238Z,37
2024-03-07T06:08:00.982Z,41
2024-03-07T06:09:01.258Z,42
2024-03-07T06:11:01.240Z,48
2024-03-07T06:12:28.529Z,51
2024-03-07T06:14:01.022Z,53
2024-03-07T06:15:01.481Z,56
2024-03-07T06:17:01.047Z,69
2024-03-07T06:18:01.754Z,73
2024-03-07T06:19:01.015Z,68
2024-03-07T06:20:01.035Z,74
2024-03-07T06:21:01.367Z,84
2024-03-07T06:22:01.025Z,95
2024-03-07T06:23:01.054Z,102
2024-03-07T06:24:01.715Z,110
2024-03-07T06:26:01.126Z,135
2024-03-07T06:27:02.342Z,143
2024-03-07T06:28:00.999Z,158
2024-03-07T06:29:01.051Z,175
2024-03-07T06:30:01.481Z,184
2024-03-07T06:32:01.053Z,214
2024-03-07T06:33:01.576Z,229
2024-03-07T06:34:00.996Z,231
2024-03-07T06:35:01.156Z,218
2024-03-07T06:36:01.512Z,220
2024-03-07T06:38:01.062Z,218
2024-03-07T06:39:01.800Z,226
2024-03-07T06:40:01.200Z,223
2024-03-07T06:41:01.227Z,249
2024-03-07T06:42:02.114Z,277
2024-03-07T06:44:01.117Z,342
2024-03-07T06:45:01.371Z,362
2024-03-07T06:46:00.991Z,342
2024-03-07T06:48:01.583Z,332
2024-03-07T06:50:01.108Z,373
2024-03-07T06:51:01.333Z,391
2024-03-07T06:53:05.284Z,449
2024-03-07T06:55:01.037Z,468
2024-03-07T06:56:01.169Z,462
2024-03-07T06:57:01.749Z,471
2024-03-07T06:59:01.024Z,500
2024-03-07T07:00:01.516Z,532
2024-03-07T07:01:01.327Z,652
2024-03-07T07:02:01.282Z,762
2024-03-07T07:03:01.036Z,850
2024-03-07T07:04:01.189Z,963
2024-03-07T07:05:01.045Z,1017
2024-03-07T07:06:01.600Z,1102
2024-03-07T07:08:01.057Z,1128
2024-03-07T07:09:01.826Z,1142
2024-03-07T07:10:01.073Z,1227
2024-03-07T07:11:01.400Z,1149
2024-03-07T07:12:01.750Z,968
2024-03-07T07:14:01.132Z,1035
2024-03-07T07:15:01.638Z,994
2024-03-07T07:16:01.388Z,946
2024-03-07T07:18:01.568Z,768
2024-03-07T07:20:01.101Z,596
2024-03-07T07:21:01.555Z,535
2024-03-07T07:22:00.979Z,517
2024-03-07T07:23:01.056Z,565
2024-03-07T07:24:01.602Z,645
2024-03-07T07:26:01.046Z,592
2024-03-07T07:27:02.356Z,572
2024-03-07T07:29:01.001Z,602
2024-03-07T07:30:01.428Z,687
2024-03-07T07:31:00.979Z,638
2024-03-07T07:32:01.048Z,604
2024-03-07T07:33:01.867Z,515
2024-03-07T07:35:01.046Z,616
2024-03-07T07:36:01.699Z,717
2024-03-07T07:38:01.180Z,908
2024-03-07T07:39:01.311Z,1123
2024-03-07T07:41:01.020Z,1048
2024-03-07T07:42:01.294Z,1115
2024-03-07T07:44:01.020Z,1400
2024-03-07T07:45:01.348Z,1758
2024-03-07T07:46:00.976Z,2454
2024-03-07T07:47:01.050Z,2727
2024-03-07T07:48:02.051Z,2692
2024-03-07T07:50:01.110Z,3356
2024-03-07T07:51:01.530Z,3851
2024-03-07T07:52:00.955Z,3961
2024-03-07T07:53:01.063Z,4217
2024-03-07T07:54:01.275Z,3961
2024-03-07T07:56:01.077Z,2841
2024-03-07T07:57:01.631Z,2256
2024-03-07T07:58:01.106Z,2090
2024-03-07T07:59:01.095Z,2625
2024-03-07T08:00:01.685Z,2686
2024-03-07T08:01:01.143Z,2624
2024-03-07T08:02:01.100Z,2875
2024-03-07T08:03:01.400Z,2766
2024-03-07T08:04:00.980Z,2719
2024-03-07T08:05:00.995Z,2667
2024-03-07T08:06:01.773Z,2423
2024-03-07T08:07:01.009Z,2180
2024-03-07T08:08:01.115Z,1953
2024-03-07T08:09:01.329Z,1956
2024-03-07T08:10:01.101Z,1869
2024-03-07T08:11:01.247Z,2025
2024-03-07T08:12:01.678Z,1498
2024-03-07T08:14:01.107Z,987
2024-03-07T08:15:01.354Z,997
2024-03-07T08:16:01.032Z,1033
2024-03-07T08:17:01.065Z,1338
2024-03-07T08:18:02.721Z,1375
2024-03-07T08:19:00.956Z,1333
2024-03-07T08:20:01.044Z,1376
2024-03-07T08:21:01.294Z,1231
2024-03-07T08:22:00.990Z,1115
2024-03-07T08:23:01.479Z,1159
2024-03-07T08:24:01.544Z,1235
2024-03-07T08:26:01.086Z,1262
2024-03-07T08:27:01.502Z,1791
2024-03-07T08:29:01.111Z,3285
2024-03-07T08:30:01.510Z,3637
2024-03-07T08:31:00.948Z,3902
2024-03-07T08:32:01.036Z,4343
2024-03-07T08:33:01.964Z,4203
2024-03-07T08:35:01.047Z,4753
2024-03-07T08:36:01.310Z,5171
2024-03-07T08:37:01.107Z,5579
2024-03-07T08:38:00.999Z,5956
2024-03-07T08:39:01.561Z,5614
2024-03-07T08:40:01.016Z,5159
2024-03-07T08:41:01.091Z,5182
2024-03-07T08:42:01.544Z,5203
2024-03-07T08:43:01.075Z,5710
2024-03-07T08:44:01.128Z,6192
2024-03-07T08:45:01.625Z,5988
2024-03-07T08:47:01.084Z,6947
2024-03-07T08:48:01.817Z,8089
2024-03-07T08:50:01.188Z,6929
2024-03-07T08:51:01.191Z,6244
2024-03-07T08:52:03.262Z,5934
2024-03-07T08:54:01.388Z,4861
2024-03-07T08:55:01.012Z,4857
2024-03-07T08:56:01.083Z,5915
2024-03-07T08:57:01.354Z,6436
2024-03-07T08:58:00.994Z,6032
2024-03-07T08:59:01.046Z,4974
2024-03-07T09:00:01.634Z,5148
2024-03-07T09:01:01.489Z,5374
2024-03-07T09:02:01.007Z,5939
2024-03-07T09:03:04.937Z,6278
2024-03-07T09:05:01.130Z,7627
2024-03-07T09:06:01.387Z,8347
2024-03-07T09:08:01.131Z,9233
2024-03-07T09:09:01.432Z,9126
2024-03-07T09:10:01.024Z,9229
2024-03-07T09:11:01.548Z,9454
2024-03-07T09:12:02.439Z,9657
2024-03-07T09:14:01.058Z,6736
2024-03-07T09:15:01.733Z,6030
2024-03-07T09:17:01.113Z,7416
2024-03-07T09:18:01.776Z,7571
2024-03-07T09:19:01.221Z,9719
2024-03-07T09:20:01.082Z,13106
2024-03-07T09:21:01.202Z,12785
2024-03-07T09:22:01.209Z,11727
2024-03-07T09:23:00.969Z,17123
2024-03-07T09:24:01.603Z,13001
2024-03-07T09:26:01.092Z,11044
2024-03-07T09:27:01.587Z,9411
2024-03-07T09:29:01.050Z,10896
2024-03-07T09:30:01.670Z,8309
2024-03-07T09:32:01.143Z,8379
2024-03-07T09:33:02.001Z,12924
2024-03-07T09:35:01.075Z,8685
2024-03-07T09:36:02.015Z,7440
2024-03-07T09:37:01.058Z,6361
2024-03-07T09:38:01.072Z,6237
2024-03-07T09:39:01.655Z,6966
2024-03-07T09:40:01.008Z,8470
2024-03-07T09:41:01.134Z,10537
2024-03-07T09:42:01.845Z,11125
2024-03-07T09:44:01.034Z,9554
2024-03-07T09:45:01.667Z,8480
2024-03-07T09:47:01.133Z,18795
2024-03-07T09:48:01.901Z,12043
2024-03-07T09:49:01.143Z,14968
2024-03-07T09:50:01.048Z,13565
2024-03-07T09:51:01.657Z,20278
2024-03-07T09:53:01.100Z,14621
2024-03-07T09:54:01.494Z,11282
2024-03-07T09:55:01.012Z,9174
2024-03-07T09:56:01.058Z,8225
2024-03-07T09:57:01.849Z,9071
2024-03-07T09:59:01.126Z,16179
2024-03-07T10:00:01.773Z,8985
2024-03-07T10:01:00.956Z,8985
2024-03-07T10:02:01.086Z,8730
2024-03-07T10:03:01.882Z,10014
2024-03-07T10:05:01.110Z,15932
2024-03-07T10:06:01.382Z,9804
2024-03-07T10:07:01.286Z,12398
2024-03-07T10:09:01.511Z,10342
2024-03-07T10:10:01.097Z,6120
2024-03-07T10:11:01.300Z,6907
2024-03-07T10:12:01.587Z,17136
2024-03-07T10:13:02.711Z,18199
2024-03-07T10:15:01.699Z,8454
2024-03-07T10:16:01.182Z,8180
2024-03-07T10:18:03.308Z,15616
2024-03-07T10:20:01.129Z,18316
2024-03-07T10:21:02.808Z,18826
2024-03-07T10:23:01.044Z,7425
2024-03-07T10:24:01.419Z,18303
2024-03-07T10:26:01.157Z,7626
2024-03-07T10:27:01.760Z,6120
2024-03-07T10:29:01.124Z,4369
2024-03-07T10:30:01.902Z,4539
2024-03-07T10:31:00.998Z,4570
2024-03-07T10:32:06.716Z,4475
2024-03-07T10:34:01.303Z,4486
2024-03-07T10:35:01.100Z,4467
2024-03-07T10:36:01.475Z,4680
2024-03-07T10:37:02.500Z,5056
2024-03-07T10:39:01.318Z,5111
2024-03-07T10:41:01.090Z,5221
2024-03-07T10:42:01.237Z,4969
2024-03-07T10:43:01.624Z,4795
2024-03-07T10:44:00.941Z,4517
2024-03-07T10:45:01.842Z,4450
2024-03-07T10:47:01.146Z,4877
2024-03-07T10:48:01.540Z,4970
2024-03-07T10:50:01.032Z,4382
2024-03-07T10:51:01.294Z,4294
2024-03-07T10:53:02.438Z,4556
2024-03-07T10:55:16.718Z,4506
2024-03-07T10:57:01.806Z,5985
2024-03-07T10:58:01.019Z,6754
2024-03-07T10:59:01.112Z,6698
2024-03-07T11:00:02.038Z,14273
2024-03-07T11:01:01.165Z,20173
2024-03-07T11:02:01.432Z,21209
2024-03-07T11:03:01.522Z,21411
2024-03-07T11:04:02.555Z,23252
2024-03-07T11:06:01.584Z,25736
2024-03-07T11:08:01.113Z,19082
2024-03-07T11:09:01.413Z,10722
2024-03-07T11:11:01.194Z,7169
2024-03-07T11:12:01.133Z,6164
2024-03-07T11:13:01.028Z,5488
2024-03-07T11:14:02.283Z,5130
2024-03-07T11:15:01.601Z,4881
2024-03-07T11:16:01.032Z,4990
2024-03-07T11:17:01.070Z,5048
2024-03-07T11:18:01.736Z,4989
2024-03-07T11:20:01.053Z,5691
2024-03-07T11:21:01.928Z,6667
2024-03-07T11:22:01.135Z,7875
2024-03-07T11:23:01.081Z,10475
2024-03-07T11:24:01.372Z,9308
2024-03-07T11:26:01.112Z,10356
2024-03-07T11:27:01.709Z,11231
2024-03-07T11:29:01.105Z,10697
2024-03-07T11:30:01.452Z,9878
2024-03-07T11:31:01.044Z,9563
2024-03-07T11:32:01.063Z,8425
2024-03-07T11:33:01.510Z,7621
2024-03-07T11:34:01.070Z,6786
2024-03-07T11:35:01.086Z,6705
2024-03-07T11:36:01.179Z,6586
2024-03-07T11:38:01.303Z,6878
2024-03-07T11:39:01.466Z,7133
2024-03-07T11:40:00.991Z,6594
2024-03-07T11:41:01.060Z,6835
2024-03-07T11:42:01.300Z,6323
2024-03-07T11:44:01.129Z,5734
2024-03-07T11:45:01.803Z,5496
2024-03-07T11:47:04.853Z,5515
2024-03-07T11:49:01.209Z,5273
2024-03-07T11:50:01.308Z,4938
2024-03-07T11:51:01.464Z,4674
2024-03-07T11:52:00.987Z,4751
2024-03-07T11:53:01.093Z,5194
2024-03-07T11:54:01.397Z,5738
2024-03-07T11:55:01.016Z,6467
2024-03-07T11:56:01.035Z,7669
2024-03-07T11:57:01.749Z,9001
2024-03-07T11:58:00.961Z,9692
2024-03-07T11:59:01.051Z,8582
2024-03-07T12:00:01.414Z,8202
2024-03-07T12:01:00.968Z,7869
2024-03-07T12:02:01.262Z,8018
2024-03-07T12:03:01.280Z,8273
2024-03-07T12:05:01.057Z,11076
2024-03-07T12:06:01.305Z,24890
2024-03-07T12:08:01.080Z,16720
2024-03-07T12:09:01.413Z,10371
2024-03-07T12:10:00.976Z,9537
2024-03-07T12:11:01.689Z,8920
2024-03-07T12:12:02.188Z,8200
2024-03-07T12:14:01.121Z,6283
2024-03-07T12:15:01.772Z,5454
2024-03-07T12:16:01.098Z,5071
2024-03-07T12:17:01.017Z,5068
2024-03-07T12:18:01.501Z,5318
2024-03-07T12:19:01.246Z,6001
2024-03-07T12:20:01.131Z,6462
2024-03-07T12:21:01.883Z,6639
2024-03-07T12:22:00.963Z,6589
2024-03-07T12:23:01.051Z,6243
2024-03-07T12:24:01.459Z,6001
2024-03-07T12:25:00.985Z,5964
2024-03-07T12:26:01.094Z,6081
2024-03-07T12:27:01.254Z,6141
2024-03-07T12:29:01.022Z,7047
2024-03-07T12:30:01.593Z,7159
2024-03-07T12:31:00.946Z,7635
2024-03-07T12:32:01.075Z,8389
2024-03-07T12:33:01.503Z,8640
2024-03-07T12:34:01.338Z,8199
2024-03-07T12:36:02.637Z,6905
2024-03-07T12:38:01.097Z,6334
2024-03-07T12:39:01.569Z,6122
2024-03-07T12:40:01.004Z,5550
2024-03-07T12:41:01.083Z,5143
2024-03-07T12:42:01.748Z,4881
2024-03-07T12:43:00.934Z,4822
2024-03-07T12:44:01.019Z,4962
2024-03-07T12:45:02.301Z,5323
2024-03-07T12:47:01.076Z,6079
2024-03-07T12:48:01.655Z,6419
2024-03-07T12:49:01.249Z,6981
2024-03-07T12:50:01.195Z,7777
2024-03-07T12:51:03.373Z,9089
2024-03-07T12:53:01.041Z,14679
2024-03-07T12:54:01.372Z,19760
2024-03-07T12:55:00.987Z,18216
2024-03-07T12:56:01.069Z,14757
2024-03-07T12:57:01.397Z,12904
2024-03-07T12:59:01.039Z,10862
2024-03-07T13:00:01.993Z,9625
2024-03-07T13:02:01.058Z,7750
2024-03-07T13:03:02.235Z,7717
2024-03-07T13:05:02.786Z,7747
2024-03-07T13:07:01.168Z,7057
2024-03-07T13:09:01.786Z,7432
2024-03-07T13:11:03.656Z,6737
2024-03-07T13:13:01.031Z,6386
2024-03-07T13:14:00.993Z,6259
2024-03-07T13:15:02.171Z,5971
2024-03-07T13:16:01.312Z,5913
2024-03-07T13:17:01.197Z,5740
2024-03-07T13:18:01.557Z,5353
2024-03-07T13:19:01.510Z,5319
2024-03-07T13:20:01.048Z,5374
2024-03-07T13:21:01.300Z,5299
2024-03-07T13:22:01.109Z,5214
2024-03-07T13:23:01.035Z,5171
2024-03-07T13:24:02.176Z,5639
2024-03-07T13:26:01.136Z,7056
2024-03-07T13:27:01.441Z,8170
2024-03-07T13:28:01.354Z,7524
2024-03-07T13:30:01.716Z,7908
2024-03-07T13:32:01.074Z,7448
2024-03-07T13:33:01.906Z,7300
2024-03-07T13:34:01.377Z,7348
2024-03-07T13:35:01.001Z,7243
2024-03-07T13:36:01.372Z,7330
2024-03-07T13:40:01.188Z,7588
2024-03-07T13:41:01.125Z,6963
2024-03-07T13:42:01.411Z,6954
2024-03-07T13:43:01.010Z,7552
2024-03-07T13:44:01.659Z,8279
2024-03-07T13:46:01.147Z,9963
2024-03-07T13:47:01.148Z,9829
2024-03-07T13:48:02.155Z,9488
2024-03-07T13:50:01.068Z,8808
2024-03-07T13:51:02.316Z,8287
2024-03-07T13:53:01.022Z,7280
2024-03-07T13:54:01.753Z,7079
2024-03-07T13:55:00.998Z,7149
2024-03-07T13:56:03.467Z,8060
2024-03-07T13:58:01.108Z,9138
2024-03-07T13:59:01.068Z,9144
2024-03-07T14:00:02.289Z,8988
2024-03-07T14:02:01.088Z,7943
2024-03-07T14:03:01.426Z,7500
2024-03-07T14:04:01.128Z,7964
2024-03-07T14:05:01.085Z,7813
2024-03-07T14:06:01.748Z,7891
2024-03-07T14:08:01.123Z,8209
2024-03-07T14:09:02.486Z,7366
2024-03-07T14:11:01.359Z,6048
2024-03-07T14:12:01.231Z,5609
2024-03-07T14:13:01.048Z,5555
2024-03-07T14:14:01.100Z,5084
2024-03-07T14:15:01.664Z,5456
2024-03-07T14:16:01.034Z,5905
2024-03-07T14:17:01.016Z,6990
2024-03-07T14:18:02.004Z,7987
2024-03-07T14:20:01.060Z,8610
2024-03-07T14:21:01.273Z,8395
2024-03-07T14:22:01.122Z,8040
2024-03-07T14:23:01.118Z,7669
2024-03-07T14:24:01.616Z,7624
2024-03-07T14:26:05.678Z,6844
2024-03-07T14:28:01.076Z,5163
2024-03-07T14:29:01.148Z,4921
2024-03-07T14:30:01.841Z,4853
2024-03-07T14:32:01.115Z,4960
2024-03-07T14:33:01.839Z,5222
2024-03-07T14:34:01.105Z,5005
2024-03-07T14:35:01.116Z,4880
2024-03-07T14:36:01.588Z,5074
2024-03-07T14:37:00.998Z,5593
2024-03-07T14:38:01.086Z,6089
2024-03-07T14:39:06.600Z,6354
2024-03-07T14:41:01.128Z,5822
2024-03-07T14:42:01.779Z,5956
2024-03-07T14:44:01.054Z,4912
2024-03-07T14:45:07.794Z,3944
2024-03-07T14:47:01.084Z,3231
2024-03-07T14:48:01.636Z,3068
2024-03-07T14:49:01.146Z,3044
2024-03-07T14:51:07.417Z,3289
2024-03-07T14:53:01.162Z,4169
2024-03-07T14:54:01.389Z,4878
2024-03-07T14:55:01.208Z,4771
2024-03-07T14:56:01.211Z,4561
2024-03-07T14:57:01.770Z,4630
2024-03-07T14:59:01.172Z,5100
2024-03-07T15:00:01.493Z,4777
2024-03-07T15:01:01.508Z,4609
2024-03-07T15:02:01.483Z,4886
2024-03-07T15:03:01.997Z,4772
2024-03-07T15:05:01.046Z,4692
2024-03-07T15:06:01.769Z,4958
2024-03-07T15:08:01.084Z,4639
2024-03-07T15:09:01.653Z,4512
2024-03-07T15:10:01.054Z,4271
2024-03-07T15:11:01.477Z,4193
2024-03-07T15:12:01.633Z,4247
2024-03-07T15:14:01.153Z,4194
2024-03-07T15:15:18.708Z,4485
2024-03-07T15:17:01.017Z,4601
2024-03-07T15:18:02.269Z,4844
2024-03-07T15:19:01.070Z,4990
2024-03-07T15:20:01.089Z,5079
2024-03-07T15:21:01.846Z,4985
2024-03-07T15:23:01.157Z,4353
2024-03-07T15:24:01.743Z,4217
2024-03-07T15:26:01.106Z,4520
2024-03-07T15:27:01.803Z,4394
2024-03-07T15:28:01.122Z,4215
2024-03-07T15:29:01.025Z,3944
2024-03-07T15:30:01.784Z,3577
2024-03-07T15:32:01.060Z,3323
2024-03-07T15:33:01.566Z,3304
2024-03-07T15:35:01.120Z,3281
2024-03-07T15:36:01.759Z,2910
2024-03-07T15:37:01.044Z,2906
2024-03-07T15:38:01.166Z,3122
2024-03-07T15:39:01.420Z,3068
2024-03-07T15:40:01.037Z,3348
2024-03-07T15:41:02.083Z,3380
2024-03-07T15:43:01.088Z,3900
2024-03-07T15:44:01.075Z,3906
2024-03-07T15:45:01.721Z,3806
2024-03-07T15:46:00.964Z,3715
2024-03-07T15:47:01.066Z,3615
2024-03-07T15:48:02.559Z,3609
2024-03-07T15:49:01.065Z,3495
2024-03-07T15:50:01.078Z,3371
2024-03-07T15:51:01.969Z,3136
2024-03-07T15:52:00.965Z,3046
2024-03-07T15:53:01.073Z,3050
2024-03-07T15:54:01.359Z,2952
2024-03-07T15:55:01.215Z,2788
2024-03-07T15:56:01.061Z,2710
2024-03-07T15:57:02.032Z,2727
2024-03-07T15:59:01.064Z,2674
2024-03-07T16:00:01.711Z,2654
2024-03-07T16:02:01.095Z,2576
2024-03-07T16:03:01.881Z,2457
2024-03-07T16:04:00.976Z,2328
2024-03-07T16:05:01.061Z,2293
2024-03-07T16:06:01.548Z,2318
2024-03-07T16:08:01.189Z,2477
2024-03-07T16:09:01.490Z,2427
2024-03-07T16:10:01.005Z,2170
2024-03-07T16:11:01.177Z,2052
2024-03-07T16:12:01.284Z,2047
2024-03-07T16:14:01.132Z,1956
2024-03-07T16:15:01.772Z,1835
2024-03-07T16:17:01.150Z,1832
2024-03-07T16:18:01.526Z,1728
2024-03-07T16:19:01.353Z,1619
2024-03-07T16:20:01.117Z,1524
2024-03-07T16:21:01.530Z,1478
2024-03-07T16:22:01.069Z,1426
2024-03-07T16:23:01.070Z,1394
2024-03-07T16:24:01.300Z,1327
2024-03-07T16:25:01.132Z,1256
2024-03-07T16:26:01.108Z,1188
2024-03-07T16:27:01.711Z,1148
2024-03-07T16:28:01.043Z,1125
2024-03-07T16:29:01.102Z,1112
2024-03-07T16:30:02.105Z,1083
2024-03-07T16:32:01.353Z,1020
2024-03-07T16:33:02.626Z,987
2024-03-07T16:35:02.383Z,961
2024-03-07T16:37:01.128Z,922
2024-03-07T16:38:01.071Z,919
2024-03-07T16:39:01.512Z,872
2024-03-07T16:41:01.110Z,772
2024-03-07T16:42:01.707Z,723
2024-03-07T16:43:01.083Z,687
2024-03-07T16:44:01.138Z,657